sensor_id;sensor_type;location;lat;lon;timestamp;pressure;altitude;pressure_sealevel;temperature;humidity
7441;BME280;29616;51.950;8.572;2023-05-01T00:01:12;100319.72;;;7.48;100.00
7441;BME280;29616;51.950;8.572;2023-05-01T00:03:43;100306.88;;;7.39;100.00
7441;BME280;29616;51.950;8.572;2023-05-01T00:06:13;100304.38;;;7.47;100.00
7441;BME280;29616;51.950;8.572;2023-05-01T00:08:45;100314.13;;;7.49;100.00
7441;BME280;29616;51.950;8.572;2023-05-01T00:11:14;100300.47;;;7.28;100.00
7441;BME280;29616;51.950;8.572;2023-05-01T00:13:42;100302.75;;;7.12;100.00
7441;BME280;29616;51.950;8.572;2023-05-01T00:16:12;100310.41;;;7.18;100.00
7441;BME280;29616;51.950;8.572;2023-05-01T00:18:42;100292.34;;;7.17;100.00
7441;BME280;29616;51.950;8.572;2023-05-01T00:21:12;100306.19;;;7.14;100.00
7441;BME280;29616;51.950;8.572;2023-05-01T00:23:42;100297.66;;;7.19;100.00
7441;BME280;29616;51.950;8.572;2023-05-01T00:26:13;100291.69;;;7.36;100.00
7441;BME280;29616;51.950;8.572;2023-05-01T00:28:46;100287.13;;;7.37;100.00
7441;BME280;29616;51.950;8.572;2023-05-01T00:31:15;100289.69;;;7.38;100.00
7441;BME280;29616;51.950;8.572;2023-05-01T00:33:45;100296.34;;;7.45;100.00
7441;BME280;29616;51.950;8.572;2023-05-01T00:36:15;100276.78;;;7.51;100.00
7441;BME280;29616;51.950;8.572;2023-05-01T00:38:44;100273.78;;;7.65;100.00
7441;BME280;29616;51.950;8.572;2023-05-01T00:41:15;100272.91;;;7.65;100.00
7441;BME280;29616;51.950;8.572;2023-05-01T00:43:43;100267.97;;;7.59;100.00
7441;BME280;29616;51.950;8.572;2023-05-01T00:46:13;100271.38;;;7.72;100.00
7441;BME280;29616;51.950;8.572;2023-05-01T00:48:44;100269.16;;;7.77;100.00
7441;BME280;29616;51.950;8.572;2023-05-01T00:51:14;100266.69;;;7.74;100.00
7441;BME280;29616;51.950;8.572;2023-05-01T00:53:45;100261.50;;;7.71;100.00
7441;BME280;29616;51.950;8.572;2023-05-01T00:56:16;100256.13;;;7.80;100.00
7441;BME280;29616;51.950;8.572;2023-05-01T00:58:48;100256.53;;;7.76;100.00
7441;BME280;29616;51.950;8.572;2023-05-01T01:01:17;100251.81;;;7.78;100.00
7441;BME280;29616;51.950;8.572;2023-05-01T01:03:47;100250.63;;;7.71;100.00
7441;BME280;29616;51.950;8.572;2023-05-01T01:06:27;100243.41;;;7.81;100.00
7441;BME280;29616;51.950;8.572;2023-05-01T01:09:14;100247.13;;;8.01;100.00
7441;BME280;29616;51.950;8.572;2023-05-01T01:12:02;100243.13;;;8.05;100.00
7441;BME280;29616;51.950;8.572;2023-05-01T01:14:39;100239.28;;;8.07;100.00
7441;BME280;29616;51.950;8.572;2023-05-01T01:17:16;100233.38;;;8.02;100.00
7441;BME280;29616;51.950;8.572;2023-05-01T01:20:13;100233.31;;;7.92;100.00
7441;BME280;29616;51.950;8.572;2023-05-01T01:22:50;100227.59;;;7.75;100.00
7441;BME280;29616;51.950;8.572;2023-05-01T01:26:02;100223.63;;;7.79;100.00
7441;BME280;29616;51.950;8.572;2023-05-01T01:29:11;100222.81;;;7.88;100.00
7441;BME280;29616;51.950;8.572;2023-05-01T01:31:56;100216.13;;;7.92;100.00
7441;BME280;29616;51.950;8.572;2023-05-01T01:34:33;100217.25;;;8.10;100.00
7441;BME280;29616;51.950;8.572;2023-05-01T01:37:10;100223.84;;;8.17;100.00
7441;BME280;29616;51.950;8.572;2023-05-01T01:39:45;100206.53;;;8.18;100.00
7441;BME280;29616;51.950;8.572;2023-05-01T01:42:19;100211.06;;;8.29;100.00
7441;BME280;29616;51.950;8.572;2023-05-01T01:44:51;100206.78;;;8.36;100.00
7441;BME280;29616;51.950;8.572;2023-05-01T01:47:26;100199.31;;;8.28;100.00
7441;BME280;29616;51.950;8.572;2023-05-01T01:50:02;100201.34;;;8.36;100.00
7441;BME280;29616;51.950;8.572;2023-05-01T01:52:33;100197.38;;;8.40;100.00
7441;BME280;29616;51.950;8.572;2023-05-01T01:55:10;100196.06;;;8.34;100.00
7441;BME280;29616;51.950;8.572;2023-05-01T01:57:41;100198.31;;;8.29;100.00
7441;BME280;29616;51.950;8.572;2023-05-01T02:00:14;100193.59;;;8.31;100.00
7441;BME280;29616;51.950;8.572;2023-05-01T02:02:47;100183.16;;;8.36;100.00
7441;BME280;29616;51.950;8.572;2023-05-01T02:05:19;100184.72;;;8.29;100.00
7441;BME280;29616;51.950;8.572;2023-05-01T02:07:49;100176.44;;;8.20;100.00
7441;BME280;29616;51.950;8.572;2023-05-01T02:10:21;100180.59;;;8.14;100.00
7441;BME280;29616;51.950;8.572;2023-05-01T02:12:52;100176.56;;;8.09;100.00
7441;BME280;29616;51.950;8.572;2023-05-01T02:15:25;100171.66;;;8.03;100.00
7441;BME280;29616;51.950;8.572;2023-05-01T02:17:55;100174.22;;;8.04;100.00
7441;BME280;29616;51.950;8.572;2023-05-01T02:20:27;100166.31;;;8.01;100.00
7441;BME280;29616;51.950;8.572;2023-05-01T02:22:57;100158.91;;;8.03;100.00
7441;BME280;29616;51.950;8.572;2023-05-01T02:25:30;100162.94;;;7.88;100.00
7441;BME280;29616;51.950;8.572;2023-05-01T02:28:08;100155.16;;;7.74;100.00
7441;BME280;29616;51.950;8.572;2023-05-01T02:30:40;100160.00;;;7.70;100.00
7441;BME280;29616;51.950;8.572;2023-05-01T02:33:08;100153.75;;;7.59;100.00
7441;BME280;29616;51.950;8.572;2023-05-01T02:35:40;100143.00;;;7.37;100.00
7441;BME280;29616;51.950;8.572;2023-05-01T02:38:11;100150.19;;;7.26;100.00
7441;BME280;29616;51.950;8.572;2023-05-01T02:40:45;100142.81;;;7.28;100.00
7441;BME280;29616;51.950;8.572;2023-05-01T02:43:19;100147.06;;;7.42;100.00
7441;BME280;29616;51.950;8.572;2023-05-01T02:45:52;100138.03;;;7.42;100.00
7441;BME280;29616;51.950;8.572;2023-05-01T02:48:26;100138.97;;;7.52;100.00
7441;BME280;29616;51.950;8.572;2023-05-01T02:50:58;100140.28;;;7.37;100.00
7441;BME280;29616;51.950;8.572;2023-05-01T02:53:27;100127.72;;;7.24;100.00
7441;BME280;29616;51.950;8.572;2023-05-01T02:56:04;100129.22;;;7.28;100.00
7441;BME280;29616;51.950;8.572;2023-05-01T02:58:34;100121.63;;;7.32;100.00
7441;BME280;29616;51.950;8.572;2023-05-01T03:01:02;100110.44;;;7.25;100.00
7441;BME280;29616;51.950;8.572;2023-05-01T03:03:32;100123.41;;;7.22;100.00
7441;BME280;29616;51.950;8.572;2023-05-01T03:06:03;100109.03;;;7.10;100.00
7441;BME280;29616;51.950;8.572;2023-05-01T03:08:32;100111.47;;;7.13;100.00
7441;BME280;29616;51.950;8.572;2023-05-01T03:11:04;100112.44;;;7.23;100.00
7441;BME280;29616;51.950;8.572;2023-05-01T03:13:34;100101.69;;;7.22;100.00
7441;BME280;29616;51.950;8.572;2023-05-01T03:16:03;100099.03;;;7.31;100.00
7441;BME280;29616;51.950;8.572;2023-05-01T03:18:33;100099.03;;;7.31;100.00
7441;BME280;29616;51.950;8.572;2023-05-01T03:21:03;100095.25;;;7.23;100.00
7441;BME280;29616;51.950;8.572;2023-05-01T03:23:32;100096.69;;;7.06;100.00
7441;BME280;29616;51.950;8.572;2023-05-01T03:26:01;100090.53;;;7.04;100.00
7441;BME280;29616;51.950;8.572;2023-05-01T03:28:31;100083.88;;;6.97;100.00
7441;BME280;29616;51.950;8.572;2023-05-01T03:30:59;100082.44;;;6.93;100.00
7441;BME280;29616;51.950;8.572;2023-05-01T03:33:28;100093.28;;;6.93;100.00
7441;BME280;29616;51.950;8.572;2023-05-01T03:36:01;100079.25;;;6.88;100.00
7441;BME280;29616;51.950;8.572;2023-05-01T03:38:33;100079.66;;;7.04;100.00
7441;BME280;29616;51.950;8.572;2023-05-01T03:41:07;100068.94;;;7.23;100.00
7441;BME280;29616;51.950;8.572;2023-05-01T03:43:55;100065.75;;;7.18;100.00
7441;BME280;29616;51.950;8.572;2023-05-01T03:46:32;100062.63;;;7.02;100.00
7441;BME280;29616;51.950;8.572;2023-05-01T03:49:02;100065.97;;;6.95;100.00
7441;BME280;29616;51.950;8.572;2023-05-01T03:51:34;100058.22;;;6.90;100.00
7441;BME280;29616;51.950;8.572;2023-05-01T03:54:04;100058.28;;;6.79;100.00
7441;BME280;29616;51.950;8.572;2023-05-01T03:56:49;100054.16;;;6.64;100.00
7441;BME280;29616;51.950;8.572;2023-05-01T03:59:19;100052.94;;;6.57;100.00
7441;BME280;29616;51.950;8.572;2023-05-01T04:01:49;100056.63;;;6.67;100.00
7441;BME280;29616;51.950;8.572;2023-05-01T04:04:20;100049.16;;;6.80;100.00
7441;BME280;29616;51.950;8.572;2023-05-01T04:06:55;100059.81;;;6.72;100.00
7441;BME280;29616;51.950;8.572;2023-05-01T04:09:25;100052.38;;;6.74;100.00
7441;BME280;29616;51.950;8.572;2023-05-01T04:11:57;100057.69;;;6.76;100.00
7441;BME280;29616;51.950;8.572;2023-05-01T04:14:28;100060.19;;;6.99;100.00
7441;BME280;29616;51.950;8.572;2023-05-01T04:16:58;100056.44;;;7.00;100.00
7441;BME280;29616;51.950;8.572;2023-05-01T04:19:31;100061.63;;;7.03;100.00
7441;BME280;29616;51.950;8.572;2023-05-01T04:22:01;100054.47;;;7.23;100.00
7441;BME280;29616;51.950;8.572;2023-05-01T04:24:35;100058.91;;;7.45;100.00
7441;BME280;29616;51.950;8.572;2023-05-01T04:27:04;100050.00;;;7.43;100.00
7441;BME280;29616;51.950;8.572;2023-05-01T04:29:34;100041.53;;;7.36;100.00
7441;BME280;29616;51.950;8.572;2023-05-01T04:32:02;100050.94;;;7.53;100.00
7441;BME280;29616;51.950;8.572;2023-05-01T04:34:33;100042.84;;;7.62;100.00
7441;BME280;29616;51.950;8.572;2023-05-01T04:37:02;100043.19;;;7.78;100.00
7441;BME280;29616;51.950;8.572;2023-05-01T04:39:35;100042.09;;;7.90;100.00
7441;BME280;29616;51.950;8.572;2023-05-01T04:42:03;100032.13;;;8.01;100.00
7441;BME280;29616;51.950;8.572;2023-05-01T04:44:33;100035.72;;;8.11;100.00
7441;BME280;29616;51.950;8.572;2023-05-01T04:47:04;100035.66;;;8.31;100.00
7441;BME280;29616;51.950;8.572;2023-05-01T04:49:34;100033.69;;;8.43;100.00
7441;BME280;29616;51.950;8.572;2023-05-01T04:52:03;100032.53;;;8.55;100.00
7441;BME280;29616;51.950;8.572;2023-05-01T04:54:49;100038.16;;;8.92;100.00
7441;BME280;29616;51.950;8.572;2023-05-01T04:57:20;100032.53;;;9.22;100.00
7441;BME280;29616;51.950;8.572;2023-05-01T04:59:49;100034.63;;;9.57;100.00
7441;BME280;29616;51.950;8.572;2023-05-01T05:02:19;100030.03;;;9.85;100.00
7441;BME280;29616;51.950;8.572;2023-05-01T05:04:47;100031.94;;;10.11;100.00
7441;BME280;29616;51.950;8.572;2023-05-01T05:07:16;100026.41;;;10.30;100.00
7441;BME280;29616;51.950;8.572;2023-05-01T05:10:13;100023.72;;;10.48;100.00
7441;BME280;29616;51.950;8.572;2023-05-01T05:12:47;100030.97;;;10.57;100.00
7441;BME280;29616;51.950;8.572;2023-05-01T05:15:16;100031.84;;;10.75;100.00
7441;BME280;29616;51.950;8.572;2023-05-01T05:17:45;100028.03;;;11.04;100.00
7441;BME280;29616;51.950;8.572;2023-05-01T05:20:16;100033.47;;;11.47;100.00
7441;BME280;29616;51.950;8.572;2023-05-01T05:22:46;100026.75;;;11.85;100.00
7441;BME280;29616;51.950;8.572;2023-05-01T05:25:25;100022.63;;;12.14;100.00
7441;BME280;29616;51.950;8.572;2023-05-01T05:27:55;100021.88;;;12.04;100.00
7441;BME280;29616;51.950;8.572;2023-05-01T05:30:23;100025.97;;;12.00;100.00
7441;BME280;29616;51.950;8.572;2023-05-01T05:32:51;100028.16;;;12.31;100.00
7441;BME280;29616;51.950;8.572;2023-05-01T05:35:21;100018.81;;;12.49;100.00
7441;BME280;29616;51.950;8.572;2023-05-01T05:37:51;100023.66;;;12.63;100.00
7441;BME280;29616;51.950;8.572;2023-05-01T05:40:20;100017.34;;;12.79;100.00
7441;BME280;29616;51.950;8.572;2023-05-01T05:42:55;100012.53;;;12.89;100.00
7441;BME280;29616;51.950;8.572;2023-05-01T05:45:27;100019.06;;;13.04;100.00
7441;BME280;29616;51.950;8.572;2023-05-01T05:47:55;100022.69;;;13.29;100.00
7441;BME280;29616;51.950;8.572;2023-05-01T05:50:25;100016.00;;;13.23;100.00
7441;BME280;29616;51.950;8.572;2023-05-01T05:52:55;100015.84;;;13.33;100.00
7441;BME280;29616;51.950;8.572;2023-05-01T05:55:24;100018.75;;;13.40;100.00
7441;BME280;29616;51.950;8.572;2023-05-01T05:58:04;100015.31;;;13.46;100.00
7441;BME280;29616;51.950;8.572;2023-05-01T06:00:36;100015.31;;;13.54;100.00
7441;BME280;29616;51.950;8.572;2023-05-01T06:03:06;100018.91;;;13.54;100.00
7441;BME280;29616;51.950;8.572;2023-05-01T06:05:35;100010.78;;;13.77;100.00
7441;BME280;29616;51.950;8.572;2023-05-01T06:08:04;100008.56;;;13.80;98.95
7441;BME280;29616;51.950;8.572;2023-05-01T06:10:32;100000.31;;;13.88;95.04
7441;BME280;29616;51.950;8.572;2023-05-01T06:13:01;100000.03;;;14.14;96.48
7441;BME280;29616;51.950;8.572;2023-05-01T06:15:43;100011.72;;;14.08;95.59
7441;BME280;29616;51.950;8.572;2023-05-01T06:18:13;100007.25;;;14.85;91.08
7441;BME280;29616;51.950;8.572;2023-05-01T06:20:43;100008.53;;;14.97;88.59
7441;BME280;29616;51.950;8.572;2023-05-01T06:23:14;100004.91;;;14.96;86.46
7441;BME280;29616;51.950;8.572;2023-05-01T06:26:10;100001.03;;;15.51;84.92
7441;BME280;29616;51.950;8.572;2023-05-01T06:28:40;99997.88;;;16.20;82.21
7441;BME280;29616;51.950;8.572;2023-05-01T06:31:12;99994.72;;;15.80;78.88
7441;BME280;29616;51.950;8.572;2023-05-01T06:33:49;99992.72;;;16.03;79.17
7441;BME280;29616;51.950;8.572;2023-05-01T06:36:25;99989.75;;;16.19;76.83
7441;BME280;29616;51.950;8.572;2023-05-01T06:38:55;99990.47;;;16.42;77.87
7441;BME280;29616;51.950;8.572;2023-05-01T06:41:25;99990.41;;;16.86;75.23
7441;BME280;29616;51.950;8.572;2023-05-01T06:43:55;99985.66;;;16.44;77.22
7441;BME280;29616;51.950;8.572;2023-05-01T06:46:26;99994.50;;;16.54;76.63
7441;BME280;29616;51.950;8.572;2023-05-01T06:48:57;99988.00;;;16.76;79.07
7441;BME280;29616;51.950;8.572;2023-05-01T06:51:27;99989.09;;;16.82;74.43
7441;BME280;29616;51.950;8.572;2023-05-01T06:53:58;99992.81;;;16.74;75.14
7441;BME280;29616;51.950;8.572;2023-05-01T06:56:28;99988.06;;;17.04;73.27
7441;BME280;29616;51.950;8.572;2023-05-01T06:58:58;99990.50;;;17.14;73.03
7441;BME280;29616;51.950;8.572;2023-05-01T07:01:29;99993.78;;;17.24;74.87
7441;BME280;29616;51.950;8.572;2023-05-01T07:04:02;99991.59;;;17.62;71.28
7441;BME280;29616;51.950;8.572;2023-05-01T07:06:32;99995.41;;;17.88;68.22
7441;BME280;29616;51.950;8.572;2023-05-01T07:09:01;99976.56;;;18.46;66.04
7441;BME280;29616;51.950;8.572;2023-05-01T07:11:29;99984.59;;;18.34;66.72
7441;BME280;29616;51.950;8.572;2023-05-01T07:13:59;99985.22;;;17.95;66.54
7441;BME280;29616;51.950;8.572;2023-05-01T07:16:30;99978.56;;;18.17;66.24
7441;BME280;29616;51.950;8.572;2023-05-01T07:19:00;99982.28;;;18.98;64.69
7441;BME280;29616;51.950;8.572;2023-05-01T07:21:28;99982.09;;;19.00;61.37
7441;BME280;29616;51.950;8.572;2023-05-01T07:23:58;99972.72;;;19.14;63.22
7441;BME280;29616;51.950;8.572;2023-05-01T07:26:28;99972.91;;;20.11;60.79
7441;BME280;29616;51.950;8.572;2023-05-01T07:28:56;99976.72;;;20.23;61.12
7441;BME280;29616;51.950;8.572;2023-05-01T07:31:27;99968.22;;;20.11;59.12
7441;BME280;29616;51.950;8.572;2023-05-01T07:33:58;99981.31;;;20.62;59.39
7441;BME280;29616;51.950;8.572;2023-05-01T07:36:28;99976.50;;;20.82;58.71
7441;BME280;29616;51.950;8.572;2023-05-01T07:38:58;99964.97;;;22.33;57.53
7441;BME280;29616;51.950;8.572;2023-05-01T07:41:26;99964.06;;;22.39;55.79
7441;BME280;29616;51.950;8.572;2023-05-01T07:43:57;99959.59;;;23.16;54.03
7441;BME280;29616;51.950;8.572;2023-05-01T07:46:26;99965.81;;;23.82;52.97
7441;BME280;29616;51.950;8.572;2023-05-01T07:48:54;99970.38;;;23.12;52.41
7441;BME280;29616;51.950;8.572;2023-05-01T07:51:25;99961.88;;;22.59;52.53
7441;BME280;29616;51.950;8.572;2023-05-01T07:53:54;99970.22;;;21.80;51.58
7441;BME280;29616;51.950;8.572;2023-05-01T07:56:24;99969.78;;;21.58;52.17
7441;BME280;29616;51.950;8.572;2023-05-01T07:58:54;99966.03;;;21.96;51.93
7441;BME280;29616;51.950;8.572;2023-05-01T08:01:22;99965.88;;;21.41;51.49
7441;BME280;29616;51.950;8.572;2023-05-01T08:03:52;99963.13;;;21.03;52.27
7441;BME280;29616;51.950;8.572;2023-05-01T08:06:24;99956.91;;;21.89;52.79
7441;BME280;29616;51.950;8.572;2023-05-01T08:08:53;99953.28;;;22.06;52.72
7441;BME280;29616;51.950;8.572;2023-05-01T08:11:23;99963.44;;;21.76;53.72
7441;BME280;29616;51.950;8.572;2023-05-01T08:13:52;99955.38;;;22.47;54.65
7441;BME280;29616;51.950;8.572;2023-05-01T08:16:20;99956.78;;;22.56;53.46
7441;BME280;29616;51.950;8.572;2023-05-01T08:18:50;99956.47;;;22.28;53.56
7441;BME280;29616;51.950;8.572;2023-05-01T08:21:20;99947.81;;;22.00;53.51
7441;BME280;29616;51.950;8.572;2023-05-01T08:23:54;99948.44;;;22.20;53.93
7441;BME280;29616;51.950;8.572;2023-05-01T08:26:22;99946.50;;;22.39;55.07
7441;BME280;29616;51.950;8.572;2023-05-01T08:28:52;99951.88;;;22.52;53.72
7441;BME280;29616;51.950;8.572;2023-05-01T08:31:21;99959.25;;;21.42;55.34
7441;BME280;29616;51.950;8.572;2023-05-01T08:33:52;99952.75;;;21.73;52.91
7441;BME280;29616;51.950;8.572;2023-05-01T08:36:20;99960.16;;;21.36;55.24
7441;BME280;29616;51.950;8.572;2023-05-01T08:38:49;99950.72;;;21.37;55.83
7441;BME280;29616;51.950;8.572;2023-05-01T08:41:21;99949.84;;;21.05;57.80
7441;BME280;29616;51.950;8.572;2023-05-01T08:43:52;99961.84;;;21.62;58.03
7441;BME280;29616;51.950;8.572;2023-05-01T08:46:32;99959.00;;;21.44;54.15
7441;BME280;29616;51.950;8.572;2023-05-01T08:49:08;99958.44;;;21.85;55.35
7441;BME280;29616;51.950;8.572;2023-05-01T08:51:41;99949.66;;;22.42;54.32
7441;BME280;29616;51.950;8.572;2023-05-01T08:54:14;99944.44;;;23.41;52.78
7441;BME280;29616;51.950;8.572;2023-05-01T08:56:46;99953.59;;;23.30;52.84
7441;BME280;29616;51.950;8.572;2023-05-01T08:59:16;99949.16;;;23.41;51.42
7441;BME280;29616;51.950;8.572;2023-05-01T09:01:46;99931.97;;;23.79;52.91
7441;BME280;29616;51.950;8.572;2023-05-01T09:04:17;99946.19;;;24.63;50.54
7441;BME280;29616;51.950;8.572;2023-05-01T09:06:46;99939.25;;;24.66;50.53
7441;BME280;29616;51.950;8.572;2023-05-01T09:09:15;99938.41;;;24.02;49.74
7441;BME280;29616;51.950;8.572;2023-05-01T09:11:45;99927.34;;;24.31;49.54
7441;BME280;29616;51.950;8.572;2023-05-01T09:14:16;99936.69;;;24.01;48.37
7441;BME280;29616;51.950;8.572;2023-05-01T09:16:45;99934.78;;;24.14;49.56
7441;BME280;29616;51.950;8.572;2023-05-01T09:19:16;99924.16;;;24.27;50.77
7441;BME280;29616;51.950;8.572;2023-05-01T09:21:44;99926.84;;;24.85;50.42
7441;BME280;29616;51.950;8.572;2023-05-01T09:24:14;99941.34;;;25.44;50.10
7441;BME280;29616;51.950;8.572;2023-05-01T09:26:45;99938.66;;;25.20;49.71
7441;BME280;29616;51.950;8.572;2023-05-01T09:29:38;99936.41;;;25.17;49.86
7441;BME280;29616;51.950;8.572;2023-05-01T09:32:16;99915.56;;;24.97;49.86
7441;BME280;29616;51.950;8.572;2023-05-01T09:34:49;99922.19;;;24.91;49.69
7441;BME280;29616;51.950;8.572;2023-05-01T09:37:26;99913.59;;;25.42;47.96
7441;BME280;29616;51.950;8.572;2023-05-01T09:40:07;99920.72;;;25.16;47.73
7441;BME280;29616;51.950;8.572;2023-05-01T09:42:40;99914.69;;;25.24;48.33
7441;BME280;29616;51.950;8.572;2023-05-01T09:45:12;99911.78;;;25.81;46.20
7441;BME280;29616;51.950;8.572;2023-05-01T09:47:42;99913.13;;;26.33;45.08
7441;BME280;29616;51.950;8.572;2023-05-01T09:50:28;99911.66;;;25.92;46.16
7441;BME280;29616;51.950;8.572;2023-05-01T09:53:00;99912.19;;;26.71;45.00
7441;BME280;29616;51.950;8.572;2023-05-01T09:55:32;99907.84;;;26.37;43.88
7441;BME280;29616;51.950;8.572;2023-05-01T09:58:03;99911.00;;;25.69;44.56
7441;BME280;29616;51.950;8.572;2023-05-01T10:00:46;99909.34;;;25.89;46.58
7441;BME280;29616;51.950;8.572;2023-05-01T10:03:15;99898.69;;;26.68;46.09
7441;BME280;29616;51.950;8.572;2023-05-01T10:05:43;99900.81;;;26.34;46.29
7441;BME280;29616;51.950;8.572;2023-05-01T10:08:13;99905.63;;;26.82;45.42
7441;BME280;29616;51.950;8.572;2023-05-01T10:10:43;99900.75;;;26.99;44.71
7441;BME280;29616;51.950;8.572;2023-05-01T10:13:16;99902.75;;;27.04;44.40
7441;BME280;29616;51.950;8.572;2023-05-01T10:15:47;99887.78;;;26.93;43.09
7441;BME280;29616;51.950;8.572;2023-05-01T10:18:17;99890.69;;;26.55;43.23
7441;BME280;29616;51.950;8.572;2023-05-01T10:20:50;99892.47;;;26.39;43.22
7441;BME280;29616;51.950;8.572;2023-05-01T10:23:19;99891.22;;;26.30;44.69
7441;BME280;29616;51.950;8.572;2023-05-01T10:25:52;99890.63;;;25.90;45.41
7441;BME280;29616;51.950;8.572;2023-05-01T10:28:23;99892.75;;;26.86;43.93
7441;BME280;29616;51.950;8.572;2023-05-01T10:30:56;99892.38;;;26.78;41.21
7441;BME280;29616;51.950;8.572;2023-05-01T10:33:27;99886.19;;;26.32;42.36
7441;BME280;29616;51.950;8.572;2023-05-01T10:35:58;99898.72;;;26.46;43.61
7441;BME280;29616;51.950;8.572;2023-05-01T10:38:32;99896.38;;;26.82;43.65
7441;BME280;29616;51.950;8.572;2023-05-01T10:41:03;99878.38;;;27.36;41.82
7441;BME280;29616;51.950;8.572;2023-05-01T10:43:37;99895.47;;;27.03;43.84
7441;BME280;29616;51.950;8.572;2023-05-01T10:46:26;99890.03;;;27.23;42.31
7441;BME280;29616;51.950;8.572;2023-05-01T10:48:57;99891.16;;;27.86;43.23
7441;BME280;29616;51.950;8.572;2023-05-01T10:51:26;99883.25;;;27.14;44.63
7441;BME280;29616;51.950;8.572;2023-05-01T10:54:21;99884.06;;;27.41;41.20
7441;BME280;29616;51.950;8.572;2023-05-01T10:56:53;99874.06;;;27.97;42.32
7441;BME280;29616;51.950;8.572;2023-05-01T10:59:24;99875.09;;;27.81;43.25
7441;BME280;29616;51.950;8.572;2023-05-01T11:01:54;99870.03;;;27.41;42.86
7441;BME280;29616;51.950;8.572;2023-05-01T11:04:49;99868.00;;;27.68;41.89
7441;BME280;29616;51.950;8.572;2023-05-01T11:07:22;99859.44;;;27.17;43.39
7441;BME280;29616;51.950;8.572;2023-05-01T11:09:54;99867.19;;;28.10;42.46
7441;BME280;29616;51.950;8.572;2023-05-01T11:12:51;99852.28;;;27.04;40.58
7441;BME280;29616;51.950;8.572;2023-05-01T11:15:32;99844.00;;;27.46;39.31
7441;BME280;29616;51.950;8.572;2023-05-01T11:18:02;99846.16;;;27.76;41.23
7441;BME280;29616;51.950;8.572;2023-05-01T11:20:59;99851.06;;;27.53;41.90
7441;BME280;29616;51.950;8.572;2023-05-01T11:23:30;99844.06;;;27.56;41.79
7441;BME280;29616;51.950;8.572;2023-05-01T11:26:02;99847.31;;;27.11;41.88
7441;BME280;29616;51.950;8.572;2023-05-01T11:28:37;99841.94;;;26.78;41.71
7441;BME280;29616;51.950;8.572;2023-05-01T11:31:08;99843.66;;;27.79;41.20
7441;BME280;29616;51.950;8.572;2023-05-01T11:33:37;99849.53;;;27.09;40.19
7441;BME280;29616;51.950;8.572;2023-05-01T11:36:07;99849.34;;;26.89;40.30
7441;BME280;29616;51.950;8.572;2023-05-01T11:38:35;99843.88;;;27.04;40.51
7441;BME280;29616;51.950;8.572;2023-05-01T11:41:04;99838.16;;;26.45;40.94
7441;BME280;29616;51.950;8.572;2023-05-01T11:43:33;99848.56;;;25.85;41.80
7441;BME280;29616;51.950;8.572;2023-05-01T11:46:22;99845.69;;;25.80;39.71
7441;BME280;29616;51.950;8.572;2023-05-01T11:48:52;99840.53;;;26.10;40.20
7441;BME280;29616;51.950;8.572;2023-05-01T11:51:23;99841.53;;;26.42;40.42
7441;BME280;29616;51.950;8.572;2023-05-01T11:53:59;99831.06;;;26.60;39.77
7441;BME280;29616;51.950;8.572;2023-05-01T11:56:31;99836.19;;;26.68;38.96
7441;BME280;29616;51.950;8.572;2023-05-01T11:59:10;99833.97;;;26.21;39.96
7441;BME280;29616;51.950;8.572;2023-05-01T12:01:44;99836.94;;;26.80;38.99
7441;BME280;29616;51.950;8.572;2023-05-01T12:04:23;99839.97;;;26.57;38.37
7441;BME280;29616;51.950;8.572;2023-05-01T12:06:58;99831.63;;;26.13;40.20
7441;BME280;29616;51.950;8.572;2023-05-01T12:09:28;99825.59;;;26.75;39.86
7441;BME280;29616;51.950;8.572;2023-05-01T12:11:58;99832.03;;;26.48;38.97
7441;BME280;29616;51.950;8.572;2023-05-01T12:14:29;99826.53;;;26.10;39.62
7441;BME280;29616;51.950;8.572;2023-05-01T12:17:01;99828.22;;;26.33;40.68
7441;BME280;29616;51.950;8.572;2023-05-01T12:19:30;99821.56;;;26.61;39.60
7441;BME280;29616;51.950;8.572;2023-05-01T12:22:05;99822.31;;;26.56;37.79
7441;BME280;29616;51.950;8.572;2023-05-01T12:24:34;99820.97;;;25.94;38.44
7441;BME280;29616;51.950;8.572;2023-05-01T12:27:04;99814.84;;;25.75;38.01
7441;BME280;29616;51.950;8.572;2023-05-01T12:29:41;99814.72;;;25.15;42.79
7441;BME280;29616;51.950;8.572;2023-05-01T12:32:13;99815.22;;;24.95;41.65
7441;BME280;29616;51.950;8.572;2023-05-01T12:34:44;99811.66;;;24.55;42.44
7441;BME280;29616;51.950;8.572;2023-05-01T12:37:14;99821.22;;;24.87;43.92
7441;BME280;29616;51.950;8.572;2023-05-01T12:39:42;99807.41;;;24.97;42.06
7441;BME280;29616;51.950;8.572;2023-05-01T12:42:12;99809.53;;;24.62;43.29
7441;BME280;29616;51.950;8.572;2023-05-01T12:44:42;99797.25;;;25.08;42.13
7441;BME280;29616;51.950;8.572;2023-05-01T12:47:14;99803.00;;;25.68;41.95
7441;BME280;29616;51.950;8.572;2023-05-01T12:49:43;99802.78;;;25.74;40.85
7441;BME280;29616;51.950;8.572;2023-05-01T12:52:13;99802.66;;;25.64;40.45
7441;BME280;29616;51.950;8.572;2023-05-01T12:54:42;99796.38;;;26.17;40.44
7441;BME280;29616;51.950;8.572;2023-05-01T12:57:15;99803.00;;;26.33;40.76
7441;BME280;29616;51.950;8.572;2023-05-01T12:59:45;99794.03;;;27.43;40.87
7441;BME280;29616;51.950;8.572;2023-05-01T13:02:18;99795.75;;;28.01;38.41
7441;BME280;29616;51.950;8.572;2023-05-01T13:04:49;99793.09;;;28.21;37.74
7441;BME280;29616;51.950;8.572;2023-05-01T13:07:18;99791.16;;;28.32;38.11
7441;BME280;29616;51.950;8.572;2023-05-01T13:09:55;99794.44;;;26.93;38.68
7441;BME280;29616;51.950;8.572;2023-05-01T13:12:25;99787.41;;;26.15;38.74
7441;BME280;29616;51.950;8.572;2023-05-01T13:14:56;99793.50;;;25.90;38.08
7441;BME280;29616;51.950;8.572;2023-05-01T13:17:27;99787.31;;;26.10;37.29
7441;BME280;29616;51.950;8.572;2023-05-01T13:20:00;99796.84;;;26.31;38.54
7441;BME280;29616;51.950;8.572;2023-05-01T13:22:30;99793.66;;;27.39;35.85
7441;BME280;29616;51.950;8.572;2023-05-01T13:25:01;99789.31;;;27.53;36.82
7441;BME280;29616;51.950;8.572;2023-05-01T13:27:30;99797.09;;;27.88;37.95
7441;BME280;29616;51.950;8.572;2023-05-01T13:30:00;99791.38;;;28.20;35.90
7441;BME280;29616;51.950;8.572;2023-05-01T13:32:31;99801.03;;;28.54;37.05